sensor_id;sensor_type;location;lat;lon;timestamp;pressure;altitude;pressure_sealevel;temperature;humidity
74778;BME280;63298;53.164;8.610;2022-12-29T00:00:36;100171.47;;;9.71;87.71
74778;BME280;63298;53.164;8.610;2022-12-29T00:03:02;100164.88;;;9.72;87.65
74778;BME280;63298;53.164;8.610;2022-12-29T00:05:27;100168.81;;;9.76;87.77
74778;BME280;63298;53.164;8.610;2022-12-29T00:07:52;100150.94;;;9.78;87.21
74778;BME280;63298;53.164;8.610;2022-12-29T00:10:18;100142.66;;;9.78;86.80
74778;BME280;63298;53.164;8.610;2022-12-29T00:12:43;100133.94;;;9.81;87.51
74778;BME280;63298;53.164;8.610;2022-12-29T00:15:08;100130.06;;;9.82;87.37
74778;BME280;63298;53.164;8.610;2022-12-29T00:17:34;100128.16;;;9.83;87.20
74778;BME280;63298;53.164;8.610;2022-12-29T00:19:59;100128.97;;;9.83;86.86
74778;BME280;63298;53.164;8.610;2022-12-29T00:22:25;100124.41;;;9.89;87.25
74778;BME280;63298;53.164;8.610;2022-12-29T00:24:50;100124.63;;;9.87;87.08
74778;BME280;63298;53.164;8.610;2022-12-29T00:27:16;100117.22;;;9.88;87.37
74778;BME280;63298;53.164;8.610;2022-12-29T00:29:41;100126.06;;;9.90;87.00
74778;BME280;63298;53.164;8.610;2022-12-29T00:32:09;100127.16;;;9.89;87.06
74778;BME280;63298;53.164;8.610;2022-12-29T00:34:34;100120.56;;;9.90;87.44
74778;BME280;63298;53.164;8.610;2022-12-29T00:37:00;100102.59;;;9.87;87.72
74778;BME280;63298;53.164;8.610;2022-12-29T00:39:25;100113.13;;;9.90;87.36
74778;BME280;63298;53.164;8.610;2022-12-29T00:41:50;100115.06;;;9.90;87.60
74778;BME280;63298;53.164;8.610;2022-12-29T00:44:16;100106.56;;;9.91;87.23
74778;BME280;63298;53.164;8.610;2022-12-29T00:46:42;100109.31;;;9.91;87.40
74778;BME280;63298;53.164;8.610;2022-12-29T00:49:10;100100.19;;;9.91;87.05
74778;BME280;63298;53.164;8.610;2022-12-29T00:51:35;100099.94;;;9.92;88.08
74778;BME280;63298;53.164;8.610;2022-12-29T00:54:01;100093.94;;;9.95;87.59
74778;BME280;63298;53.164;8.610;2022-12-29T00:56:26;100091.41;;;9.94;87.36
74778;BME280;63298;53.164;8.610;2022-12-29T00:58:51;100092.25;;;9.94;87.98
74778;BME280;63298;53.164;8.610;2022-12-29T01:01:17;100096.09;;;9.93;88.06
74778;BME280;63298;53.164;8.610;2022-12-29T01:03:42;100086.75;;;9.94;87.98
74778;BME280;63298;53.164;8.610;2022-12-29T01:06:10;100083.75;;;9.96;87.85
74778;BME280;63298;53.164;8.610;2022-12-29T01:08:36;100075.81;;;10.00;87.57
74778;BME280;63298;53.164;8.610;2022-12-29T01:11:10;100077.97;;;9.97;88.28
74778;BME280;63298;53.164;8.610;2022-12-29T01:13:36;100077.97;;;9.97;87.65
74778;BME280;63298;53.164;8.610;2022-12-29T01:16:01;100074.97;;;9.99;87.46
74778;BME280;63298;53.164;8.610;2022-12-29T01:18:27;100072.22;;;9.99;87.91
74778;BME280;63298;53.164;8.610;2022-12-29T01:21:03;100054.84;;;9.98;87.47
74778;BME280;63298;53.164;8.610;2022-12-29T01:23:31;100059.34;;;10.05;87.90
74778;BME280;63298;53.164;8.610;2022-12-29T01:25:57;100061.50;;;10.03;87.62
74778;BME280;63298;53.164;8.610;2022-12-29T01:28:23;100054.41;;;10.07;87.52
74778;BME280;63298;53.164;8.610;2022-12-29T01:30:48;100051.72;;;10.12;87.62
74778;BME280;63298;53.164;8.610;2022-12-29T01:33:14;100056.44;;;10.11;87.22
74778;BME280;63298;53.164;8.610;2022-12-29T01:35:40;100047.44;;;10.16;87.66
74778;BME280;63298;53.164;8.610;2022-12-29T01:38:05;100039.72;;;10.18;87.81
74778;BME280;63298;53.164;8.610;2022-12-29T01:40:31;100046.66;;;10.20;87.33
74778;BME280;63298;53.164;8.610;2022-12-29T01:42:56;100039.72;;;10.18;87.45
74778;BME280;63298;53.164;8.610;2022-12-29T01:45:22;100035.06;;;10.18;87.38
74778;BME280;63298;53.164;8.610;2022-12-29T01:47:54;100029.28;;;10.20;87.72
74778;BME280;63298;53.164;8.610;2022-12-29T01:50:26;100037.63;;;10.25;87.60
74778;BME280;63298;53.164;8.610;2022-12-29T01:55:26;100029.94;;;10.27;86.48
74778;BME280;63298;53.164;8.610;2022-12-29T01:57:53;100035.50;;;10.32;86.90
74778;BME280;63298;53.164;8.610;2022-12-29T02:00:20;100027.00;;;10.33;87.46
74778;BME280;63298;53.164;8.610;2022-12-29T02:02:52;100024.31;;;10.38;86.97
74778;BME280;63298;53.164;8.610;2022-12-29T02:05:29;100020.16;;;10.36;86.38
74778;BME280;63298;53.164;8.610;2022-12-29T02:07:59;100018.53;;;10.40;86.60
74778;BME280;63298;53.164;8.610;2022-12-29T02:10:27;100009.16;;;10.41;86.83
74778;BME280;63298;53.164;8.610;2022-12-29T02:12:54;99999.81;;;10.42;87.02
74778;BME280;63298;53.164;8.610;2022-12-29T02:24:08;99993.00;;;10.50;86.32
74778;BME280;63298;53.164;8.610;2022-12-29T02:26:54;99985.59;;;10.50;85.84
74778;BME280;63298;53.164;8.610;2022-12-29T02:29:37;99994.16;;;10.54;86.40
74778;BME280;63298;53.164;8.610;2022-12-29T02:32:24;99996.34;;;10.52;86.10
74778;BME280;63298;53.164;8.610;2022-12-29T02:37:27;99986.72;;;10.54;86.25
74778;BME280;63298;53.164;8.610;2022-12-29T02:40:24;99986.97;;;10.53;86.13
74778;BME280;63298;53.164;8.610;2022-12-29T02:45:45;99987.88;;;10.58;86.10
74778;BME280;63298;53.164;8.610;2022-12-29T02:48:18;99982.09;;;10.60;86.06
74778;BME280;63298;53.164;8.610;2022-12-29T02:51:03;99976.31;;;10.61;86.28
74778;BME280;63298;53.164;8.610;2022-12-29T02:53:32;99977.72;;;10.64;86.01
74778;BME280;63298;53.164;8.610;2022-12-29T02:55:58;99970.25;;;10.59;85.55
74778;BME280;63298;53.164;8.610;2022-12-29T02:58:23;99981.03;;;10.66;85.88
74778;BME280;63298;53.164;8.610;2022-12-29T03:11:15;99949.31;;;10.63;86.00
74778;BME280;63298;53.164;8.610;2022-12-29T03:13:47;99948.78;;;10.66;85.16
74778;BME280;63298;53.164;8.610;2022-12-29T03:16:35;99942.13;;;10.62;85.08
74778;BME280;63298;53.164;8.610;2022-12-29T03:19:19;99945.47;;;10.64;85.64
74778;BME280;63298;53.164;8.610;2022-12-29T03:21:59;99936.38;;;10.64;85.86
74778;BME280;63298;53.164;8.610;2022-12-29T03:24:29;99946.03;;;10.66;85.94
74778;BME280;63298;53.164;8.610;2022-12-29T03:26:57;99934.44;;;10.64;85.71
74778;BME280;63298;53.164;8.610;2022-12-29T03:29:24;99917.59;;;10.66;85.48
74778;BME280;63298;53.164;8.610;2022-12-29T03:31:52;99928.97;;;10.69;85.19
74778;BME280;63298;53.164;8.610;2022-12-29T03:34:20;99918.19;;;10.68;84.77
74778;BME280;63298;53.164;8.610;2022-12-29T03:37:01;99915.44;;;10.68;85.41
74778;BME280;63298;53.164;8.610;2022-12-29T03:39:28;99920.41;;;10.71;85.19
74778;BME280;63298;53.164;8.610;2022-12-29T03:42:02;99909.66;;;10.69;85.28
74778;BME280;63298;53.164;8.610;2022-12-29T03:44:35;99910.50;;;10.70;85.19
74778;BME280;63298;53.164;8.610;2022-12-29T03:47:03;99903.63;;;10.72;85.50
74778;BME280;63298;53.164;8.610;2022-12-29T03:49:28;99911.41;;;10.75;85.76
74778;BME280;63298;53.164;8.610;2022-12-29T03:51:56;99899.47;;;10.70;85.54
74778;BME280;63298;53.164;8.610;2022-12-29T03:54:21;99895.28;;;10.67;86.13
74778;BME280;63298;53.164;8.610;2022-12-29T03:56:46;99895.34;;;10.72;85.88
74778;BME280;63298;53.164;8.610;2022-12-29T03:59:12;99896.13;;;10.68;86.38
74778;BME280;63298;53.164;8.610;2022-12-29T04:01:37;99878.75;;;10.67;86.71
74778;BME280;63298;53.164;8.610;2022-12-29T04:04:03;99892.53;;;10.67;86.88
74778;BME280;63298;53.164;8.610;2022-12-29T04:06:28;99877.06;;;10.66;86.66
74778;BME280;63298;53.164;8.610;2022-12-29T04:08:54;99878.19;;;10.65;87.19
74778;BME280;63298;53.164;8.610;2022-12-29T04:11:20;99865.50;;;10.64;87.10
74778;BME280;63298;53.164;8.610;2022-12-29T04:13:46;99886.97;;;10.62;87.73
74778;BME280;63298;53.164;8.610;2022-12-29T04:16:11;99876.78;;;10.63;86.95
74778;BME280;63298;53.164;8.610;2022-12-29T04:18:36;99872.94;;;10.64;87.18
74778;BME280;63298;53.164;8.610;2022-12-29T04:21:02;99885.59;;;10.60;87.83
74778;BME280;63298;53.164;8.610;2022-12-29T04:23:29;99882.53;;;10.61;87.53
74778;BME280;63298;53.164;8.610;2022-12-29T04:25:55;99888.63;;;10.63;87.43
74778;BME280;63298;53.164;8.610;2022-12-29T04:28:20;99875.94;;;10.62;87.98
74778;BME280;63298;53.164;8.610;2022-12-29T04:30:46;99883.66;;;10.60;87.46
74778;BME280;63298;53.164;8.610;2022-12-29T04:33:12;99875.88;;;10.57;88.59
74778;BME280;63298;53.164;8.610;2022-12-29T04:35:37;99885.28;;;10.61;87.78
74778;BME280;63298;53.164;8.610;2022-12-29T04:38:03;99881.47;;;10.62;88.02
74778;BME280;63298;53.164;8.610;2022-12-29T04:40:29;99906.28;;;10.62;88.02
74778;BME280;63298;53.164;8.610;2022-12-29T04:42:54;99882.81;;;10.60;88.28
74778;BME280;63298;53.164;8.610;2022-12-29T04:45:20;99898.53;;;10.59;88.04
74778;BME280;63298;53.164;8.610;2022-12-29T04:47:45;99898.00;;;10.62;88.01
74778;BME280;63298;53.164;8.610;2022-12-29T04:50:11;99895.00;;;10.64;88.13
74778;BME280;63298;53.164;8.610;2022-12-29T04:52:39;99896.38;;;10.66;88.53
74778;BME280;63298;53.164;8.610;2022-12-29T04:55:05;99899.13;;;10.66;88.55
74778;BME280;63298;53.164;8.610;2022-12-29T04:57:31;99897.81;;;10.69;88.13
74778;BME280;63298;53.164;8.610;2022-12-29T04:59:57;99882.91;;;10.70;87.69
74778;BME280;63298;53.164;8.610;2022-12-29T05:02:23;99885.41;;;10.71;87.61
74778;BME280;63298;53.164;8.610;2022-12-29T05:04:48;99884.06;;;10.74;87.78
74778;BME280;63298;53.164;8.610;2022-12-29T05:07:16;99882.91;;;10.70;87.65
74778;BME280;63298;53.164;8.610;2022-12-29T05:09:42;99892.28;;;10.69;87.19
74778;BME280;63298;53.164;8.610;2022-12-29T05:12:07;99887.59;;;10.69;87.37
74778;BME280;63298;53.164;8.610;2022-12-29T05:14:32;99901.69;;;10.73;86.87
74778;BME280;63298;53.164;8.610;2022-12-29T05:16:58;99901.69;;;10.73;87.36
74778;BME280;63298;53.164;8.610;2022-12-29T05:19:24;99889.56;;;10.74;87.23
74778;BME280;63298;53.164;8.610;2022-12-29T05:21:50;99899.78;;;10.73;86.90
74778;BME280;63298;53.164;8.610;2022-12-29T05:24:15;99892.88;;;10.76;86.37
74778;BME280;63298;53.164;8.610;2022-12-29T05:26:41;99906.13;;;10.74;86.52
74778;BME280;63298;53.164;8.610;2022-12-29T05:29:06;99904.22;;;10.74;86.76
74778;BME280;63298;53.164;8.610;2022-12-29T05:31:33;99905.88;;;10.75;86.75
74778;BME280;63298;53.164;8.610;2022-12-29T05:34:00;99906.97;;;10.74;87.15
74778;BME280;63298;53.164;8.610;2022-12-29T05:36:25;99905.28;;;10.73;86.77
74778;BME280;63298;53.164;8.610;2022-12-29T05:38:51;99891.50;;;10.73;86.97
74778;BME280;63298;53.164;8.610;2022-12-29T05:41:17;99897.00;;;10.73;86.98
74778;BME280;63298;53.164;8.610;2022-12-29T05:43:43;99896.13;;;10.68;86.52
74778;BME280;63298;53.164;8.610;2022-12-29T05:46:09;99903.06;;;10.70;86.82
74778;BME280;63298;53.164;8.610;2022-12-29T05:48:37;99894.69;;;10.60;86.20
74778;BME280;63298;53.164;8.610;2022-12-29T05:51:02;99895.81;;;10.64;86.78
74778;BME280;63298;53.164;8.610;2022-12-29T05:53:27;99908.53;;;10.65;86.39
74778;BME280;63298;53.164;8.610;2022-12-29T05:55:53;99910.94;;;10.62;86.68
74778;BME280;63298;53.164;8.610;2022-12-29T05:58:19;99911.25;;;10.60;86.17
74778;BME280;63298;53.164;8.610;2022-12-29T06:00:44;99913.72;;;10.62;86.57
74778;BME280;63298;53.164;8.610;2022-12-29T06:03:10;99893.03;;;10.59;86.75
74778;BME280;63298;53.164;8.610;2022-12-29T06:05:36;99895.19;;;10.57;86.96
74778;BME280;63298;53.164;8.610;2022-12-29T06:08:01;99897.94;;;10.57;87.08
74778;BME280;63298;53.164;8.610;2022-12-29T06:10:26;99893.81;;;10.55;86.84
74778;BME280;63298;53.164;8.610;2022-12-29T06:12:52;99889.38;;;10.54;87.12
74778;BME280;63298;53.164;8.610;2022-12-29T06:15:17;99879.44;;;10.53;87.03
74778;BME280;63298;53.164;8.610;2022-12-29T06:17:42;99889.63;;;10.52;86.58
74778;BME280;63298;53.164;8.610;2022-12-29T06:20:09;99888.19;;;10.45;87.50
74778;BME280;63298;53.164;8.610;2022-12-29T06:22:34;99889.25;;;10.44;87.50
74778;BME280;63298;53.164;8.610;2022-12-29T06:24:59;99871.84;;;10.38;86.91
74778;BME280;63298;53.164;8.610;2022-12-29T06:27:25;99892.84;;;10.44;87.45
74778;BME280;63298;53.164;8.610;2022-12-29T06:29:50;99891.44;;;10.42;86.46
74778;BME280;63298;53.164;8.610;2022-12-29T06:32:16;99889.78;;;10.41;87.51
74778;BME280;63298;53.164;8.610;2022-12-29T06:34:41;99899.16;;;10.39;86.87
74778;BME280;63298;53.164;8.610;2022-12-29T06:37:06;99904.38;;;10.36;86.74
74778;BME280;63298;53.164;8.610;2022-12-29T06:39:32;99903.25;;;10.37;87.38
74778;BME280;63298;53.164;8.610;2022-12-29T06:41:57;99905.16;;;10.36;86.80
74778;BME280;63298;53.164;8.610;2022-12-29T06:44:23;99899.16;;;10.39;86.43
74778;BME280;63298;53.164;8.610;2022-12-29T06:46:49;99899.47;;;10.43;86.70
74778;BME280;63298;53.164;8.610;2022-12-29T06:49:14;99887.84;;;10.41;86.87
74778;BME280;63298;53.164;8.610;2022-12-29T06:51:40;99894.78;;;10.44;86.46
74778;BME280;63298;53.164;8.610;2022-12-29T06:54:05;99893.69;;;10.45;86.53
74778;BME280;63298;53.164;8.610;2022-12-29T06:56:31;99892.84;;;10.44;86.56
74778;BME280;63298;53.164;8.610;2022-12-29T06:58:56;99898.38;;;10.44;86.09
74778;BME280;63298;53.164;8.610;2022-12-29T07:01:22;99900.28;;;10.44;86.39
74778;BME280;63298;53.164;8.610;2022-12-29T07:03:47;99910.19;;;10.39;86.57
74778;BME280;63298;53.164;8.610;2022-12-29T07:06:12;99904.38;;;10.36;86.75
74778;BME280;63298;53.164;8.610;2022-12-29T07:08:38;99908.75;;;10.37;86.37
74778;BME280;63298;53.164;8.610;2022-12-29T07:11:04;99912.56;;;10.31;86.10
74778;BME280;63298;53.164;8.610;2022-12-29T07:13:29;99912.28;;;10.32;86.80
74778;BME280;63298;53.164;8.610;2022-12-29T07:15:55;99911.16;;;10.28;86.41
74778;BME280;63298;53.164;8.610;2022-12-29T07:18:20;99911.34;;;10.22;86.59
74778;BME280;63298;53.164;8.610;2022-12-29T07:20:45;99908.34;;;10.23;86.10
74778;BME280;63298;53.164;8.610;2022-12-29T07:23:11;99910.50;;;10.21;85.75
74778;BME280;63298;53.164;8.610;2022-12-29T07:25:36;99921.53;;;10.21;85.69
74778;BME280;63298;53.164;8.610;2022-12-29T07:28:02;99928.41;;;10.19;85.71
74778;BME280;63298;53.164;8.610;2022-12-29T07:30:28;99932.50;;;10.16;85.76
74778;BME280;63298;53.164;8.610;2022-12-29T07:32:53;99928.94;;;10.16;85.74
74778;BME280;63298;53.164;8.610;2022-12-29T07:35:19;99941.59;;;10.17;85.75
74778;BME280;63298;53.164;8.610;2022-12-29T07:37:44;99940.50;;;10.18;85.59
74778;BME280;63298;53.164;8.610;2022-12-29T07:40:10;99958.19;;;10.22;86.15
74778;BME280;63298;53.164;8.610;2022-12-29T07:42:35;99956.88;;;10.24;85.90
74778;BME280;63298;53.164;8.610;2022-12-29T07:45:01;99952.69;;;10.22;86.01
74778;BME280;63298;53.164;8.610;2022-12-29T07:47:26;99956.88;;;10.24;86.52
74778;BME280;63298;53.164;8.610;2022-12-29T07:49:52;99962.06;;;10.21;85.85
74778;BME280;63298;53.164;8.610;2022-12-29T07:52:17;99970.41;;;10.26;86.17
74778;BME280;63298;53.164;8.610;2022-12-29T07:54:43;99963.69;;;10.22;85.98
74778;BME280;63298;53.164;8.610;2022-12-29T07:57:08;99966.47;;;10.22;85.67
74778;BME280;63298;53.164;8.610;2022-12-29T07:59:33;99975.91;;;10.26;86.39
74778;BME280;63298;53.164;8.610;2022-12-29T08:01:59;99969.22;;;10.22;86.06
74778;BME280;63298;53.164;8.610;2022-12-29T08:04:24;99975.56;;;10.22;86.20
74778;BME280;63298;53.164;8.610;2022-12-29T08:06:49;99975.25;;;10.19;85.69
74778;BME280;63298;53.164;8.610;2022-12-29T08:09:15;99977.41;;;10.17;86.06
74778;BME280;63298;53.164;8.610;2022-12-29T08:11:40;99982.59;;;10.13;85.71
74778;BME280;63298;53.164;8.610;2022-12-29T08:14:06;99981.19;;;10.11;85.41
74778;BME280;63298;53.164;8.610;2022-12-29T08:16:31;99985.28;;;10.08;85.38
74778;BME280;63298;53.164;8.610;2022-12-29T08:18:57;99978.91;;;10.08;85.82
74778;BME280;63298;53.164;8.610;2022-12-29T08:21:22;99989.38;;;10.06;85.54
74778;BME280;63298;53.164;8.610;2022-12-29T08:23:47;99981.38;;;10.04;85.75
74778;BME280;63298;53.164;8.610;2022-12-29T08:26:13;99983.81;;;10.01;84.18
74778;BME280;63298;53.164;8.610;2022-12-29T08:28:38;99996.81;;;10.05;84.51
74778;BME280;63298;53.164;8.610;2022-12-29T08:31:04;99997.66;;;10.06;84.52
74778;BME280;63298;53.164;8.610;2022-12-29T08:33:30;99999.28;;;10.07;84.59
74778;BME280;63298;53.164;8.610;2022-12-29T08:36:03;100005.16;;;10.10;84.00
74778;BME280;63298;53.164;8.610;2022-12-29T08:38:29;100008.75;;;10.11;83.89
74778;BME280;63298;53.164;8.610;2022-12-29T08:40:56;100009.31;;;10.13;83.40
74778;BME280;63298;53.164;8.610;2022-12-29T08:43:21;100008.56;;;10.17;84.04
74778;BME280;63298;53.164;8.610;2022-12-29T08:45:47;100016.84;;;10.17;83.31
74778;BME280;63298;53.164;8.610;2022-12-29T08:48:12;100025.44;;;10.21;83.57
74778;BME280;63298;53.164;8.610;2022-12-29T08:50:37;100023.25;;;10.23;83.60
74778;BME280;63298;53.164;8.610;2022-12-29T08:53:03;100026.00;;;10.23;83.54
74778;BME280;63298;53.164;8.610;2022-12-29T08:55:28;100025.19;;;10.22;83.62
74778;BME280;63298;53.164;8.610;2022-12-29T08:57:53;100019.41;;;10.24;83.06
74778;BME280;63298;53.164;8.610;2022-12-29T09:00:19;100008.63;;;10.22;83.22
74778;BME280;63298;53.164;8.610;2022-12-29T09:02:44;100024.94;;;10.24;82.88
74778;BME280;63298;53.164;8.610;2022-12-29T09:05:09;100035.13;;;10.23;83.04
74778;BME280;63298;53.164;8.610;2022-12-29T09:07:35;100024.75;;;10.14;82.46
74778;BME280;63298;53.164;8.610;2022-12-29T09:10:01;100041.66;;;10.17;82.78
74778;BME280;63298;53.164;8.610;2022-12-29T09:12:26;100048.47;;;10.15;82.35
74778;BME280;63298;53.164;8.610;2022-12-29T09:14:51;100050.66;;;10.13;82.56
74778;BME280;63298;53.164;8.610;2022-12-29T09:17:17;100040.47;;;10.13;82.78
74778;BME280;63298;53.164;8.610;2022-12-29T09:19:42;100047.31;;;10.11;81.63
74778;BME280;63298;53.164;8.610;2022-12-29T09:22:07;100040.22;;;10.15;82.43
74778;BME280;63298;53.164;8.610;2022-12-29T09:24:33;100042.38;;;10.13;82.13
74778;BME280;63298;53.164;8.610;2022-12-29T09:26:58;100041.53;;;10.12;82.29
74778;BME280;63298;53.164;8.610;2022-12-29T09:29:23;100037.47;;;10.15;81.98
74778;BME280;63298;53.164;8.610;2022-12-29T09:31:48;100051.84;;;10.17;81.98
74778;BME280;63298;53.164;8.610;2022-12-29T09:34:14;100044.16;;;10.19;82.36
74778;BME280;63298;53.164;8.610;2022-12-29T09:36:39;100044.22;;;10.24;82.09
74778;BME280;63298;53.164;8.610;2022-12-29T09:39:04;100042.88;;;10.26;81.25
74778;BME280;63298;53.164;8.610;2022-12-29T09:41:41;100046.47;;;10.27;81.29
74778;BME280;63298;53.164;8.610;2022-12-29T09:44:30;100049.88;;;10.34;80.44
74778;BME280;63298;53.164;8.610;2022-12-29T09:46:57;100056.00;;;10.36;80.39
74778;BME280;63298;53.164;8.610;2022-12-29T09:49:40;100072.78;;;10.34;79.16
74778;BME280;63298;53.164;8.610;2022-12-29T09:52:30;100059.91;;;10.40;79.90
74778;BME280;63298;53.164;8.610;2022-12-29T09:54:59;100048.59;;;10.42;79.72
74778;BME280;63298;53.164;8.610;2022-12-29T09:57:27;100053.28;;;10.41;78.85
74778;BME280;63298;53.164;8.610;2022-12-29T09:59:59;100057.97;;;10.41;79.57
74778;BME280;63298;53.164;8.610;2022-12-29T10:02:37;100049.44;;;10.42;79.68
74778;BME280;63298;53.164;8.610;2022-12-29T10:05:13;100052.19;;;10.42;79.59
74778;BME280;63298;53.164;8.610;2022-12-29T10:23:43;100058.84;;;10.46;80.18
74778;BME280;63298;53.164;8.610;2022-12-29T10:26:15;100048.66;;;10.47;79.10
74778;BME280;63298;53.164;8.610;2022-12-29T10:28:51;100058.34;;;10.49;78.72
74778;BME280;63298;53.164;8.610;2022-12-29T10:34:20;100053.69;;;10.50;78.45
74778;BME280;63298;53.164;8.610;2022-12-29T10:36:49;100053.69;;;10.50;78.33
74778;BME280;63298;53.164;8.610;2022-12-29T10:39:35;100050.66;;;10.51;77.40
74778;BME280;63298;53.164;8.610;2022-12-29T10:42:13;100052.31;;;10.52;77.90
74778;BME280;63298;53.164;8.610;2022-12-29T10:44:40;100064.19;;;10.53;77.69
74778;BME280;63298;53.164;8.610;2022-12-29T10:47:12;100056.50;;;10.55;76.82
74778;BME280;63298;53.164;8.610;2022-12-29T10:49:40;100064.25;;;10.58;77.81
74778;BME280;63298;53.164;8.610;2022-12-29T10:52:07;100064.25;;;10.58;77.48
74778;BME280;63298;53.164;8.610;2022-12-29T10:54:41;100067.00;;;10.58;76.90
74778;BME280;63298;53.164;8.610;2022-12-29T10:57:13;100067.59;;;10.60;77.97
74778;BME280;63298;53.164;8.610;2022-12-29T10:59:41;100069.78;;;10.58;78.24
74778;BME280;63298;53.164;8.610;2022-12-29T11:07:16;100071.91;;;10.51;78.64
74778;BME280;63298;53.164;8.610;2022-12-29T11:09:43;100061.38;;;10.48;78.30
74778;BME280;63298;53.164;8.610;2022-12-29T11:12:21;100057.84;;;10.52;78.12
74778;BME280;63298;53.164;8.610;2022-12-29T11:14:47;100052.31;;;10.52;78.84
74778;BME280;63298;53.164;8.610;2022-12-29T11:17:25;100051.00;;;10.55;78.50
74778;BME280;63298;53.164;8.610;2022-12-29T11:19:50;100061.19;;;10.54;78.25
74778;BME280;63298;53.164;8.610;2022-12-29T11:22:28;100056.81;;;10.58;78.27
74778;BME280;63298;53.164;8.610;2022-12-29T11:24:54;100056.88;;;10.63;78.01
74778;BME280;63298;53.164;8.610;2022-12-29T11:27:23;100050.47;;;10.58;77.77
74778;BME280;63298;53.164;8.610;2022-12-29T11:29:53;100055.22;;;10.62;78.92
74778;BME280;63298;53.164;8.610;2022-12-29T11:32:28;100038.09;;;10.60;77.64
74778;BME280;63298;53.164;8.610;2022-12-29T11:34:54;100042.56;;;10.66;78.14
74778;BME280;63298;53.164;8.610;2022-12-29T11:37:28;100032.38;;;10.67;78.00
74778;BME280;63298;53.164;8.610;2022-12-29T11:39:58;100049.75;;;10.67;77.66
74778;BME280;63298;53.164;8.610;2022-12-29T11:42:35;100045.00;;;10.63;76.97
74778;BME280;63298;53.164;8.610;2022-12-29T11:45:16;100054.66;;;10.60;76.84
74778;BME280;63298;53.164;8.610;2022-12-29T11:47:47;100042.84;;;10.65;77.65
74778;BME280;63298;53.164;8.610;2022-12-29T11:50:23;100054.38;;;10.62;76.52
74778;BME280;63298;53.164;8.610;2022-12-29T11:52:58;100040.84;;;10.60;75.90
74778;BME280;63298;53.164;8.610;2022-12-29T11:55:26;100051.97;;;10.65;76.41
74778;BME280;63298;53.164;8.610;2022-12-29T11:57:53;100058.09;;;10.72;76.57
74778;BME280;63298;53.164;8.610;2022-12-29T12:00:24;100047.31;;;10.71;76.81
74778;BME280;63298;53.164;8.610;2022-12-29T12:03:13;100055.59;;;10.71;74.95
74778;BME280;63298;53.164;8.610;2022-12-29T12:05:47;100063.31;;;10.69;75.96
74778;BME280;63298;53.164;8.610;2022-12-29T12:10:58;100074.09;;;10.70;74.67
74778;BME280;63298;53.164;8.610;2022-12-29T12:16:18;100075.16;;;10.69;75.66
74778;BME280;63298;53.164;8.610;2022-12-29T12:18:51;100074.09;;;10.70;75.54
74778;BME280;63298;53.164;8.610;2022-12-29T12:21:40;100077.66;;;10.71;74.74
74778;BME280;63298;53.164;8.610;2022-12-29T12:24:19;100074.34;;;10.69;74.92
74778;BME280;63298;53.164;8.610;2022-12-29T12:26:53;100088.97;;;10.69;76.06
74778;BME280;63298;53.164;8.610;2022-12-29T12:29:32;100094.13;;;10.66;75.68
74778;BME280;63298;53.164;8.610;2022-12-29T12:32:04;100091.38;;;10.66;75.87
74778;BME280;63298;53.164;8.610;2022-12-29T12:34:37;100101.66;;;10.70;76.39
74778;BME280;63298;53.164;8.610;2022-12-29T12:43:18;100131.03;;;10.60;77.76
74778;BME280;63298;53.164;8.610;2022-12-29T13:10:59;100166.66;;;10.28;81.62
74778;BME280;63298;53.164;8.610;2022-12-29T13:13:34;100190.41;;;10.29;80.96
74778;BME280;63298;53.164;8.610;2022-12-29T13:19:40;100194.56;;;10.31;81.52
74778;BME280;63298;53.164;8.610;2022-12-29T13:21:50;100190.16;;;10.30;80.90
74778;BME280;63298;53.164;8.610;2022-12-29T13:24:35;100195.16;;;10.33;81.01
74778;BME280;63298;53.164;8.610;2022-12-29T13:38:12;100217.81;;;10.35;79.70
74778;BME280;63298;53.164;8.610;2022-12-29T13:40:45;100231.84;;;10.34;79.48
74778;BME280;63298;53.164;8.610;2022-12-29T13:43:13;100244.47;;;10.30;79.01
74778;BME280;63298;53.164;8.610;2022-12-29T13:45:40;100237.84;;;10.31;78.78
74778;BME280;63298;53.164;8.610;2022-12-29T13:48:23;100241.53;;;10.20;78.37
74778;BME280;63298;53.164;8.610;2022-12-29T13:50:57;100235.50;;;10.23;78.31
74778;BME280;63298;53.164;8.610;2022-12-29T13:53:33;100252.03;;;10.23;78.71
74778;BME280;63298;53.164;8.610;2022-12-29T13:56:12;100253.72;;;10.24;77.90
74778;BME280;63298;53.164;8.610;2022-12-29T13:58:57;100255.19;;;10.15;77.67
74778;BME280;63298;53.164;8.610;2022-12-29T14:01:40;100266.94;;;10.10;77.55
74778;BME280;63298;53.164;8.610;2022-12-29T14:04:29;100273.22;;;10.06;78.04
74778;BME280;63298;53.164;8.610;2022-12-29T14:07:16;100281.94;;;10.03;78.54
74778;BME280;63298;53.164;8.610;2022-12-29T14:09:46;100277.28;;;10.03;77.89
74778;BME280;63298;53.164;8.610;2022-12-29T14:14:49;100287.22;;;10.04;79.13
74778;BME280;63298;53.164;8.610;2022-12-29T14:17:19;100297.28;;;10.10;79.04
74778;BME280;63298;53.164;8.610;2022-12-29T14:19:45;100287.09;;;10.11;78.54
74778;BME280;63298;53.164;8.610;2022-12-29T14:22:12;100315.22;;;10.13;79.39
74778;BME280;63298;53.164;8.610;2022-12-29T14:24:44;100314.66;;;10.11;78.90
74778;BME280;63298;53.164;8.610;2022-12-29T14:34:56;100323.69;;;9.94;80.61
74778;BME280;63298;53.164;8.610;2022-12-29T14:37:33;100330.28;;;9.93;80.86
74778;BME280;63298;53.164;8.610;2022-12-29T14:40:06;100347.88;;;9.92;80.06
74778;BME280;63298;53.164;8.610;2022-12-29T14:42:42;100332.94;;;9.88;80.72
74778;BME280;63298;53.164;8.610;2022-12-29T14:47:41;100346.59;;;9.83;80.33
74778;BME280;63298;53.164;8.610;2022-12-29T14:52:59;100349.59;;;9.82;80.39
74778;BME280;63298;53.164;8.610;2022-12-29T14:55:53;100351.06;;;9.73;80.18
74778;BME280;63298;53.164;8.610;2022-12-29T14:58:28;100353.72;;;9.68;80.25
74778;BME280;63298;53.164;8.610;2022-12-29T15:00:55;100351.78;;;9.68;79.98